createdAt,value
2019-03-31T00:02:20.957Z,97279.00
2019-03-31T00:04:52.094Z,97279.00
2019-03-31T00:07:22.716Z,97288.95
2019-03-31T00:09:53.327Z,97278.22
2019-03-31T00:12:24.035Z,97277.66
2019-03-31T00:14:54.587Z,97283.95
2019-03-31T00:17:25.754Z,97280.98
2019-03-31T00:19:56.338Z,97273.56
2019-03-31T00:22:26.947Z,97282.59
2019-03-31T00:24:57.484Z,97277.56
2019-03-31T00:27:28.071Z,97280.90
2019-03-31T00:29:58.683Z,97285.88
2019-03-31T00:32:29.357Z,97285.80
2019-03-31T00:34:59.951Z,97284.80
2019-03-31T00:37:30.547Z,97283.78
2019-03-31T00:40:01.107Z,97284.95
2019-03-31T00:42:31.731Z,97279.12
2019-03-31T00:45:02.315Z,97275.59
2019-03-31T00:47:32.896Z,97282.13
2019-03-31T00:50:03.479Z,97285.33
2019-03-31T00:52:34.104Z,97279.63
2019-03-31T00:55:04.690Z,97275.28
2019-03-31T00:57:35.341Z,97275.28
2019-03-31T01:00:07.485Z,97285.91
2019-03-31T01:02:38.119Z,97285.05
2019-03-31T01:05:08.823Z,97278.27
2019-03-31T01:07:39.439Z,97281.56
2019-03-31T01:10:10.028Z,97277.75
2019-03-31T01:12:40.671Z,97274.61
2019-03-31T01:15:16.175Z,97277.83
2019-03-31T01:17:47.286Z,97281.42
2019-03-31T01:20:17.966Z,97283.41
2019-03-31T01:22:48.557Z,97282.73
2019-03-31T01:25:19.210Z,97279.67
2019-03-31T01:27:49.756Z,97278.75
2019-03-31T01:30:22.119Z,97270.30
2019-03-31T01:32:53.307Z,97274.06
2019-03-31T01:35:23.907Z,97271.08
2019-03-31T01:37:54.538Z,97281.13
2019-03-31T01:40:25.141Z,97271.02
2019-03-31T01:42:55.807Z,97280.24
2019-03-31T01:45:26.817Z,97276.47
2019-03-31T01:47:57.761Z,97287.78
2019-03-31T01:50:28.485Z,97272.46
2019-03-31T01:52:59.042Z,97267.10
2019-03-31T01:55:29.632Z,97271.65
2019-03-31T01:58:00.206Z,97278.75
2019-03-31T02:00:45.388Z,97269.03
2019-03-31T02:03:16.010Z,97270.58
2019-03-31T02:05:46.647Z,97267.91
2019-03-31T02:08:17.166Z,97268.97
2019-03-31T02:10:47.788Z,97270.52
2019-03-31T02:13:18.335Z,97274.95
2019-03-31T02:15:48.942Z,97272.23
2019-03-31T02:18:19.544Z,97264.11
2019-03-31T02:20:50.152Z,97260.23
2019-03-31T02:23:20.742Z,97266.84
2019-03-31T02:25:51.386Z,97264.20
2019-03-31T02:28:21.998Z,97265.00
2019-03-31T02:30:52.678Z,97264.03
2019-03-31T02:33:23.294Z,97262.72
2019-03-31T02:35:53.831Z,97264.64
2019-03-31T02:38:24.417Z,97263.72
2019-03-31T02:40:54.986Z,97256.86
2019-03-31T02:43:25.622Z,97256.80
2019-03-31T02:45:56.492Z,97251.73
2019-03-31T02:48:27.192Z,97254.23
2019-03-31T02:50:57.811Z,97255.83
2019-03-31T02:53:28.437Z,97250.70
2019-03-31T02:55:59.580Z,97254.80
2019-03-31T02:58:31.745Z,97250.59
2019-03-31T03:01:02.480Z,97251.36
2019-03-31T03:03:34.692Z,97250.92
2019-03-31T03:06:06.446Z,97242.80
2019-03-31T03:08:37.824Z,97251.14
2019-03-31T03:11:09.417Z,97249.30
2019-03-31T03:13:41.326Z,97244.50
2019-03-31T03:16:29.651Z,97249.52
2019-03-31T03:19:00.244Z,97252.36
2019-03-31T03:21:30.782Z,97249.59
2019-03-31T03:24:02.266Z,97245.17
2019-03-31T03:26:32.898Z,97247.57
2019-03-31T03:29:03.502Z,97253.19
2019-03-31T03:31:34.109Z,97252.33
2019-03-31T03:34:04.858Z,97253.08
2019-03-31T03:36:35.485Z,97252.16
2019-03-31T03:39:07.786Z,97252.16
2019-03-31T03:41:38.532Z,97253.80
2019-03-31T03:44:09.124Z,97252.42
2019-03-31T03:46:39.716Z,97249.27
2019-03-31T03:49:10.467Z,97249.00
2019-03-31T03:51:41.100Z,97253.08
2019-03-31T03:54:11.672Z,97250.45
2019-03-31T03:56:42.284Z,97250.45
2019-03-31T03:59:12.856Z,97254.22
2019-03-31T04:01:43.439Z,97255.80
2019-03-31T04:04:14.036Z,97258.84
2019-03-31T04:06:44.696Z,97254.22
2019-03-31T04:09:15.258Z,97256.40
2019-03-31T04:11:45.884Z,97258.91
2019-03-31T04:14:16.492Z,97254.70
2019-03-31T04:16:47.061Z,97250.45
2019-03-31T04:19:17.666Z,97253.77
2019-03-31T04:21:48.375Z,97249.53
2019-03-31T04:24:19.005Z,97250.34
2019-03-31T04:26:49.591Z,97251.11
2019-03-31T04:29:20.219Z,97252.70
2019-03-31T04:31:50.838Z,97249.30
2019-03-31T04:34:21.471Z,97252.45
2019-03-31T04:36:52.109Z,97255.61
2019-03-31T04:39:22.713Z,97251.41
2019-03-31T04:41:53.386Z,97245.47
2019-03-31T04:44:23.956Z,97254.56
2019-03-31T04:46:54.544Z,97253.04
2019-03-31T04:49:25.142Z,97257.48
2019-03-31T04:51:55.762Z,97255.30
2019-03-31T04:54:26.445Z,97257.14
2019-03-31T04:56:57.023Z,97258.86
2019-03-31T04:59:27.603Z,97266.83
2019-03-31T05:01:58.190Z,97264.32
2019-03-31T05:04:28.967Z,97268.88
2019-03-31T05:06:59.654Z,97272.48
2019-03-31T05:09:30.370Z,97275.63
2019-03-31T05:12:00.920Z,97271.42
2019-03-31T05:14:31.580Z,97272.30
2019-03-31T05:17:02.176Z,97271.42
2019-03-31T05:19:33.006Z,97280.58
2019-03-31T05:22:03.627Z,97281.45
2019-03-31T05:24:34.228Z,97275.63
2019-03-31T05:27:04.845Z,97283.15
2019-03-31T05:29:35.464Z,97275.63
2019-03-31T05:32:06.114Z,97281.57
2019-03-31T05:34:36.699Z,97280.92
2019-03-31T05:37:07.931Z,97279.34
2019-03-31T05:39:38.538Z,97282.30
2019-03-31T05:42:09.238Z,97281.78
2019-03-31T05:44:39.826Z,97284.57
2019-03-31T05:47:10.414Z,97290.13
2019-03-31T05:49:40.981Z,97290.25
2019-03-31T05:52:11.669Z,97289.53
2019-03-31T05:54:42.245Z,97287.92
2019-03-31T05:57:17.646Z,97287.16
2019-03-31T05:59:48.224Z,97294.73
2019-03-31T06:02:18.819Z,97287.27
2019-03-31T06:04:49.386Z,97290.45
2019-03-31T06:07:20.061Z,97286.90
2019-03-31T06:09:50.671Z,97289.65
2019-03-31T06:12:21.267Z,97288.99
2019-03-31T06:14:51.847Z,97294.13
2019-03-31T06:17:22.483Z,97296.79
2019-03-31T06:19:53.087Z,97300.02
2019-03-31T06:22:23.789Z,97293.53
2019-03-31T06:24:54.413Z,97293.33
2019-03-31T06:27:25.089Z,97294.97
2019-03-31T06:29:55.711Z,97294.09
2019-03-31T06:32:26.343Z,97289.34
2019-03-31T06:34:57.013Z,97292.88
2019-03-31T06:37:27.689Z,97291.41
2019-03-31T06:39:58.297Z,97299.26
2019-03-31T06:42:29.039Z,97294.94
2019-03-31T06:44:59.676Z,97302.41
2019-03-31T06:47:33.229Z,97297.76
2019-03-31T06:50:04.056Z,97293.63
2019-03-31T06:52:34.666Z,97300.20
2019-03-31T06:55:06.188Z,97299.75
2019-03-31T06:57:36.847Z,97300.63
2019-03-31T07:00:08.379Z,97302.29
2019-03-31T07:02:38.982Z,97300.56
2019-03-31T07:05:09.701Z,97305.59
2019-03-31T07:07:40.284Z,97293.80
2019-03-31T07:10:11.884Z,97294.61
2019-03-31T07:12:48.148Z,97279.61
2019-03-31T07:15:20.530Z,97290.47
2019-03-31T07:17:51.767Z,97297.69
2019-03-31T07:20:22.783Z,97299.83
2019-03-31T07:22:54.035Z,97296.14
2019-03-31T07:25:24.814Z,97292.41
2019-03-31T07:27:55.430Z,97292.10
2019-03-31T07:30:26.230Z,97292.60
2019-03-31T07:32:57.032Z,97289.84
2019-03-31T07:35:27.652Z,97288.78
2019-03-31T07:37:58.265Z,97290.95
2019-03-31T07:40:29.173Z,97293.45
2019-03-31T07:43:00.205Z,97295.89
2019-03-31T07:45:30.840Z,97293.73
2019-03-31T07:48:01.621Z,97292.41
2019-03-31T07:50:32.274Z,97294.97
2019-03-31T07:53:02.876Z,97297.38
2019-03-31T07:55:33.489Z,97295.56
2019-03-31T07:58:04.163Z,97295.91
2019-03-31T08:00:34.734Z,97298.39
2019-03-31T08:03:06.457Z,97294.66
2019-03-31T08:05:37.781Z,97295.01
2019-03-31T08:08:08.911Z,97288.59
2019-03-31T08:10:39.545Z,97283.84
2019-03-31T08:13:10.371Z,97286.63
2019-03-31T08:15:40.999Z,97273.36
2019-03-31T08:18:11.608Z,97280.45
2019-03-31T08:20:42.452Z,97280.72
2019-03-31T08:23:13.116Z,97281.39
2019-03-31T08:25:43.782Z,97290.57
2019-03-31T08:28:14.674Z,97278.48
2019-03-31T08:30:46.173Z,97279.95
2019-03-31T08:33:16.831Z,97274.22
2019-03-31T08:35:48.017Z,97278.67
2019-03-31T08:38:19.357Z,97277.97
2019-03-31T08:40:50.294Z,97274.88
2019-03-31T08:43:20.962Z,97276.05
2019-03-31T08:45:51.537Z,97275.48
2019-03-31T08:48:22.161Z,97276.07
2019-03-31T08:50:52.890Z,97268.20
2019-03-31T08:53:23.588Z,97264.18
2019-03-31T08:55:54.256Z,97273.83
2019-03-31T08:58:24.959Z,97274.93
2019-03-31T09:01:01.708Z,97273.81
2019-03-31T09:03:32.447Z,97270.08
2019-03-31T09:06:03.189Z,97268.84
2019-03-31T09:08:33.995Z,97268.53
2019-03-31T09:11:04.731Z,97271.15
2019-03-31T09:13:35.589Z,97252.98
2019-03-31T09:16:06.179Z,97256.17
2019-03-31T09:18:36.823Z,97261.45
2019-03-31T09:21:07.567Z,97237.70
2019-03-31T09:23:38.168Z,97259.22
2019-03-31T09:26:08.872Z,97255.09
2019-03-31T09:28:39.630Z,97268.73
2019-03-31T09:31:10.414Z,97252.25
2019-03-31T09:33:41.003Z,97252.73
2019-03-31T09:36:16.502Z,97246.03
2019-03-31T09:38:43.952Z,97245.22
2019-03-31T09:41:14.667Z,97241.84
2019-03-31T09:43:45.291Z,97247.80
2019-03-31T09:46:15.920Z,97248.67
2019-03-31T09:48:46.730Z,97241.89
2019-03-31T09:51:17.381Z,97244.48
2019-03-31T09:53:47.996Z,97247.06
2019-03-31T09:56:18.632Z,97243.72
2019-03-31T09:58:49.291Z,97235.28
2019-03-31T10:01:20.815Z,97238.70
2019-03-31T10:03:51.441Z,97237.45
2019-03-31T10:06:30.023Z,97233.66
2019-03-31T10:08:54.473Z,97231.11
2019-03-31T10:11:25.111Z,97229.40
2019-03-31T10:13:55.732Z,97225.98
2019-03-31T10:16:26.502Z,97223.41
2019-03-31T10:18:57.129Z,97221.70
2019-03-31T10:21:28.027Z,97222.93
2019-03-31T10:23:58.678Z,97215.65
2019-03-31T10:26:32.206Z,97213.95
2019-03-31T10:29:01.622Z,97210.50
2019-03-31T10:31:32.319Z,97207.05
2019-03-31T10:34:03.005Z,97201.05
2019-03-31T10:36:43.884Z,97204.45
2019-03-31T10:39:07.942Z,97191.59
2019-03-31T10:41:39.033Z,97191.97
2019-03-31T10:44:09.644Z,97188.09
2019-03-31T10:46:40.312Z,97184.62
2019-03-31T10:49:10.885Z,97182.86
2019-03-31T10:51:41.559Z,97180.28
2019-03-31T10:54:12.161Z,97177.79
2019-03-31T10:56:42.846Z,97177.81
2019-03-31T10:59:13.528Z,97175.64
2019-03-31T11:01:44.129Z,97172.55
2019-03-31T11:04:14.757Z,97175.03
2019-03-31T11:06:58.412Z,97137.52
2019-03-31T11:09:17.778Z,97173.98
2019-03-31T11:11:48.400Z,97165.41
2019-03-31T11:14:19.029Z,97167.92
2019-03-31T11:16:49.808Z,97157.64
2019-03-31T11:19:20.500Z,97161.98
2019-03-31T11:22:10.064Z,97146.42
2019-03-31T11:24:41.038Z,97165.87
2019-03-31T11:27:11.668Z,97158.34
2019-03-31T11:29:42.326Z,97156.47
2019-03-31T11:32:13.154Z,97155.08
2019-03-31T11:34:43.791Z,97156.17
2019-03-31T11:37:14.519Z,97152.28
2019-03-31T11:39:45.136Z,97151.04
2019-03-31T11:42:15.755Z,97152.57
2019-03-31T11:44:46.328Z,97154.19
2019-03-31T11:47:16.927Z,97141.39
2019-03-31T11:49:47.689Z,97147.42
2019-03-31T11:52:18.248Z,97141.89
2019-03-31T11:54:48.849Z,97149.20
2019-03-31T11:57:19.495Z,97137.73
2019-03-31T11:59:50.117Z,97137.73
2019-03-31T12:02:27.373Z,97136.09
2019-03-31T12:04:53.671Z,97134.73
2019-03-31T12:07:28.278Z,97131.30
2019-03-31T12:09:57.145Z,97123.18
2019-03-31T12:12:27.801Z,97121.77
2019-03-31T12:15:00.737Z,97124.17
2019-03-31T12:17:30.748Z,97128.23
2019-03-31T12:20:01.386Z,97121.23
2019-03-31T12:22:32.091Z,97118.67
2019-03-31T12:25:02.736Z,97111.75
2019-03-31T12:27:33.353Z,97107.78
2019-03-31T12:30:04.084Z,97110.32
2019-03-31T12:32:38.138Z,97110.32
2019-03-31T12:35:07.193Z,97108.98
2019-03-31T12:37:42.743Z,97114.03
2019-03-31T12:40:15.485Z,97106.21
2019-03-31T12:42:46.301Z,97107.80
2019-03-31T12:45:16.947Z,97103.50
2019-03-31T12:47:47.659Z,97106.06
2019-03-31T12:50:18.397Z,97099.25
2019-03-31T12:52:51.142Z,97092.38
2019-03-31T12:55:21.334Z,97086.69
2019-03-31T12:57:52.310Z,97086.13
2019-03-31T13:00:22.977Z,97083.11
2019-03-31T13:02:53.679Z,97077.52
2019-03-31T13:05:24.270Z,97075.77
2019-03-31T13:07:56.620Z,97071.55
2019-03-31T13:10:27.261Z,97068.95
2019-03-31T13:12:57.879Z,97064.97
2019-03-31T13:15:31.154Z,97066.55
2019-03-31T13:18:02.473Z,97057.84
2019-03-31T13:20:34.285Z,97055.28
2019-03-31T13:23:04.881Z,97052.31
2019-03-31T13:25:35.486Z,97043.55
2019-03-31T13:28:06.238Z,97042.47
2019-03-31T13:30:36.912Z,97035.52
2019-03-31T13:33:07.519Z,97037.82
2019-03-31T13:35:38.182Z,97036.30
2019-03-31T13:38:11.440Z,97032.26
2019-03-31T13:40:41.030Z,97030.42
2019-03-31T13:43:11.619Z,97035.05
2019-03-31T13:45:42.289Z,97031.03
2019-03-31T13:48:12.937Z,97034.83
2019-03-31T13:50:43.574Z,97029.30
2019-03-31T13:53:16.292Z,97029.70
2019-03-31T13:55:46.504Z,97035.69
2019-03-31T13:58:18.965Z,97032.55
2019-03-31T14:00:49.406Z,97028.27
2019-03-31T14:03:20.104Z,97032.08
2019-03-31T14:05:50.672Z,97027.38
2019-03-31T14:08:25.903Z,97025.23
2019-03-31T14:10:53.662Z,97022.20
2019-03-31T14:13:24.293Z,97023.06
2019-03-31T14:15:54.902Z,97021.27
2019-03-31T14:18:25.585Z,97013.69
2019-03-31T14:20:56.256Z,97012.14
2019-03-31T14:23:26.861Z,97007.13
2019-03-31T14:25:57.528Z,97005.02
2019-03-31T14:28:28.212Z,97003.94
2019-03-31T14:30:58.793Z,97003.16
2019-03-31T14:33:29.478Z,96995.19
2019-03-31T14:36:00.083Z,96993.64
2019-03-31T14:38:40.107Z,96984.73
2019-03-31T14:41:03.088Z,96980.06
2019-03-31T14:43:33.715Z,96986.73
2019-03-31T14:46:04.607Z,96986.70
2019-03-31T14:48:35.189Z,96986.48
2019-03-31T14:51:05.865Z,96986.48
2019-03-31T14:53:36.486Z,96984.22
2019-03-31T14:56:07.089Z,96982.16
2019-03-31T14:58:37.869Z,96984.91
2019-03-31T15:01:08.462Z,96971.38
2019-03-31T15:03:39.052Z,96968.88
2019-03-31T15:06:09.729Z,96975.81
2019-03-31T15:08:53.528Z,96975.78
2019-03-31T15:11:12.718Z,96970.87
2019-03-31T15:13:43.303Z,96968.57
2019-03-31T15:16:13.935Z,96966.09
2019-03-31T15:18:44.502Z,96968.83
2019-03-31T15:21:15.119Z,96968.56
2019-03-31T15:23:45.745Z,96966.38
2019-03-31T15:26:16.438Z,96966.27
2019-03-31T15:28:47.067Z,96966.27
2019-03-31T15:31:17.698Z,96969.86
2019-03-31T15:33:48.266Z,96979.58
2019-03-31T15:36:18.898Z,96974.64
2019-03-31T15:38:49.502Z,96975.23
2019-03-31T15:41:21.377Z,96974.54
2019-03-31T15:43:52.277Z,96975.50
2019-03-31T15:46:24.628Z,96972.91
2019-03-31T15:48:55.432Z,96969.78
2019-03-31T15:51:26.112Z,96968.37
2019-03-31T15:53:56.738Z,96963.73
2019-03-31T15:56:27.302Z,96968.88
2019-03-31T15:58:57.945Z,96965.95
2019-03-31T16:01:28.603Z,96964.63
2019-03-31T16:03:59.205Z,96971.80
2019-03-31T16:06:30.248Z,96970.50
2019-03-31T16:09:00.355Z,96971.81
2019-03-31T16:11:30.685Z,96962.58
2019-03-31T16:14:00.750Z,96963.88
2019-03-31T16:16:31.039Z,96967.73
2019-03-31T16:19:01.404Z,96960.63
2019-03-31T16:21:31.549Z,96970.08
2019-03-31T16:24:01.692Z,96965.93
2019-03-31T16:26:32.181Z,96967.91
2019-03-31T16:29:02.362Z,96977.90
2019-03-31T16:31:32.484Z,96975.03
2019-03-31T16:34:02.634Z,96973.80
2019-03-31T16:36:32.866Z,96971.39
2019-03-31T16:39:05.505Z,96968.48
2019-03-31T16:41:36.197Z,96974.65
2019-03-31T16:44:06.282Z,96970.58
2019-03-31T16:46:39.696Z,96973.98
2019-03-31T16:49:08.183Z,96972.45
2019-03-31T16:51:38.194Z,96969.56
2019-03-31T16:54:08.341Z,96970.50
2019-03-31T16:56:38.699Z,96967.64
2019-03-31T16:59:08.925Z,96969.50
2019-03-31T17:01:39.182Z,96972.23
2019-03-31T17:04:12.974Z,96971.47
2019-03-31T17:06:43.809Z,96976.72
2019-03-31T17:09:13.835Z,96979.44
2019-03-31T17:11:43.959Z,96969.80
2019-03-31T17:14:14.360Z,96972.02
2019-03-31T17:16:44.468Z,96970.00
2019-03-31T17:19:14.737Z,96979.88
2019-03-31T17:21:44.867Z,96971.83
2019-03-31T17:24:14.972Z,96976.58
2019-03-31T17:26:45.053Z,96970.71
2019-03-31T17:29:15.179Z,96978.86
2019-03-31T17:31:45.319Z,96980.19
2019-03-31T17:34:15.407Z,96978.55
2019-03-31T17:36:45.459Z,96979.08
2019-03-31T17:39:15.631Z,96978.66
2019-03-31T17:41:45.695Z,96977.92
2019-03-31T17:44:15.808Z,96982.23
2019-03-31T17:46:45.943Z,96984.84
2019-03-31T17:49:16.068Z,96985.78
2019-03-31T17:51:46.169Z,96985.83
2019-03-31T17:54:16.289Z,96983.73
2019-03-31T17:56:46.487Z,96987.66
2019-03-31T17:59:16.599Z,96987.66
2019-03-31T18:01:46.719Z,96988.13
2019-03-31T18:04:16.887Z,96993.69
2019-03-31T18:06:46.961Z,96988.61
2019-03-31T18:09:17.054Z,96998.43
2019-03-31T18:11:47.183Z,97001.86
2019-03-31T18:14:17.312Z,96995.92
2019-03-31T18:16:47.474Z,97007.42
2019-03-31T18:19:17.636Z,97008.28
2019-03-31T18:21:47.853Z,97009.16
2019-03-31T18:24:18.190Z,97004.94
2019-03-31T18:26:48.299Z,97012.60
2019-03-31T18:29:18.711Z,97012.59
2019-03-31T18:31:49.008Z,97013.45
2019-03-31T18:34:19.378Z,97013.02
2019-03-31T18:36:49.640Z,97019.39
2019-03-31T18:39:20.168Z,97020.23
2019-03-31T18:41:50.480Z,97024.83
2019-03-31T18:44:20.758Z,97023.09
2019-03-31T18:46:51.488Z,97026.03
2019-03-31T18:49:23.004Z,97030.22
2019-03-31T18:51:53.412Z,97029.77
2019-03-31T18:54:39.265Z,97037.36
2019-03-31T18:57:34.364Z,97033.50
2019-03-31T19:00:25.978Z,97037.72
2019-03-31T19:03:06.940Z,97042.76
2019-03-31T19:05:59.040Z,97041.88
2019-03-31T19:08:54.298Z,97039.29
2019-03-31T19:11:50.083Z,97038.38
2019-03-31T19:14:40.151Z,97042.13
2019-03-31T19:17:27.810Z,97043.73
2019-03-31T19:20:29.149Z,97046.52
2019-03-31T19:23:21.562Z,97050.75
2019-03-31T19:26:01.298Z,97052.40
2019-03-31T19:28:44.512Z,97057.83
2019-03-31T19:31:31.411Z,97059.48
2019-03-31T19:34:23.563Z,97059.86
2019-03-31T19:37:26.877Z,97063.60
2019-03-31T19:40:16.050Z,97064.00
2019-03-31T19:43:03.907Z,97066.10
2019-03-31T19:45:59.121Z,97072.38
2019-03-31T19:48:43.153Z,97073.61
2019-03-31T19:51:35.378Z,97070.59
2019-03-31T19:54:30.380Z,97071.41
2019-03-31T19:57:30.456Z,97071.39
2019-03-31T20:00:18.508Z,97067.98
2019-03-31T20:02:58.741Z,97075.57
2019-03-31T20:05:51.874Z,97073.41
2019-03-31T20:08:52.988Z,97069.94
2019-03-31T20:11:54.159Z,97065.23
2019-03-31T20:14:43.282Z,97068.61
2019-03-31T20:17:31.759Z,97070.26
2019-03-31T20:20:19.086Z,97075.27
2019-03-31T20:23:06.861Z,97076.06
2019-03-31T20:25:45.810Z,97084.50
2019-03-31T20:28:34.895Z,97087.81
2019-03-31T20:31:26.754Z,97091.59
2019-03-31T20:34:10.053Z,97088.13
2019-03-31T20:36:48.017Z,97096.58
2019-03-31T20:39:40.311Z,97090.20
2019-03-31T20:42:23.349Z,97095.67
2019-03-31T20:44:53.468Z,97091.89
2019-03-31T20:47:23.540Z,97091.50
2019-03-31T20:49:53.677Z,97093.67
2019-03-31T20:52:23.793Z,97103.00
2019-03-31T20:54:53.876Z,97103.00
2019-03-31T20:57:24.006Z,97102.55
2019-03-31T20:59:54.101Z,97107.20
2019-03-31T21:02:24.183Z,97106.36
2019-03-31T21:04:54.261Z,97112.30
2019-03-31T21:07:24.332Z,97110.22
2019-03-31T21:09:54.465Z,97107.23
2019-03-31T21:12:24.571Z,97117.77
2019-03-31T21:14:54.783Z,97113.96
2019-03-31T21:17:24.947Z,97121.64
2019-03-31T21:19:54.988Z,97123.33
2019-03-31T21:22:25.026Z,97122.94
2019-03-31T21:24:55.104Z,97120.00
2019-03-31T21:27:25.162Z,97123.42
2019-03-31T21:29:55.309Z,97121.72
2019-03-31T21:32:25.370Z,97123.91
2019-03-31T21:34:58.153Z,97123.04
2019-03-31T21:37:28.157Z,97122.59
2019-03-31T21:40:04.551Z,97132.74
2019-03-31T21:42:34.613Z,97125.98
2019-03-31T21:45:04.864Z,97127.22
2019-03-31T21:47:35.020Z,97130.16
2019-03-31T21:50:05.229Z,97131.42
2019-03-31T21:52:35.286Z,97135.16
2019-03-31T21:55:05.356Z,97136.88
2019-03-31T21:57:35.487Z,97130.09
2019-03-31T22:00:07.533Z,97132.63
2019-03-31T22:02:37.633Z,97133.47
2019-03-31T22:05:08.113Z,97130.94
2019-03-31T22:07:38.192Z,97135.98
2019-03-31T22:10:08.584Z,97134.23
2019-03-31T22:12:38.693Z,97132.48
2019-03-31T22:15:08.747Z,97131.59
2019-03-31T22:17:38.868Z,97131.59
2019-03-31T22:20:08.990Z,97141.44
2019-03-31T22:22:39.110Z,97140.80
2019-03-31T22:25:09.274Z,97145.80
2019-03-31T22:27:39.390Z,97143.23
2019-03-31T22:30:09.461Z,97139.41
2019-03-31T22:32:39.548Z,97141.08
2019-03-31T22:35:09.600Z,97137.67
2019-03-31T22:37:39.672Z,97137.63
2019-03-31T22:40:09.792Z,97133.83
2019-03-31T22:42:39.869Z,97131.67
2019-03-31T22:45:10.405Z,97134.54
2019-03-31T22:47:40.472Z,97128.17
2019-03-31T22:50:10.489Z,97129.37
2019-03-31T22:52:40.544Z,97131.91
2019-03-31T22:55:10.555Z,97134.42
2019-03-31T22:57:40.625Z,97130.98
2019-03-31T23:00:17.640Z,97134.30
2019-03-31T23:02:47.708Z,97132.61
2019-03-31T23:05:17.794Z,97128.31
2019-03-31T23:07:48.274Z,97127.41
2019-03-31T23:10:18.338Z,97134.11
2019-03-31T23:12:48.427Z,97131.93
2019-03-31T23:15:18.524Z,97133.97
2019-03-31T23:17:48.571Z,97133.89
2019-03-31T23:20:19.630Z,97136.34
2019-03-31T23:22:49.700Z,97134.98
2019-03-31T23:25:20.231Z,97137.53
2019-03-31T23:27:50.272Z,97125.09
2019-03-31T23:30:20.881Z,97139.52
2019-03-31T23:32:50.949Z,97132.58
2019-03-31T23:35:23.634Z,97132.58
2019-03-31T23:37:53.620Z,97132.15
2019-03-31T23:40:23.652Z,97129.12
2019-03-31T23:42:53.690Z,97132.84
2019-03-31T23:45:23.808Z,97126.80
2019-03-31T23:47:53.831Z,97129.72
2019-03-31T23:50:23.942Z,97118.66
2019-03-31T23:52:54.124Z,97116.06
2019-03-31T23:55:24.253Z,97123.63
2019-03-31T23:57:54.255Z,97128.61
